Terminal Aerodrome Forecast
Issued by NWS

Current Version | Previous Version | Text Only | Print | Product List | Glossary Off
Versions: 1 2 3 4 5 6 7 8 9 10 11 12 13 14 15 16 17 18 19 20 21 22 23 24 25 26

000
FTUS41 KPBZ 250535
TAFHLG
TAF
KHLG 250535Z 2506/2606 17005KT P6SM BKN100 WS020/20050KT
     FM250900 19012G22KT 3SM -SHRA VCTS OVC035CB
     FM251300 26015G25KT 5SM -SHRA OVC020
     FM251700 27015G25KT P6SM OVC020
     FM252200 28012G22KT P6SM BKN035=

USA.gov is the U.S. government's official web portal to all federal, state and local government web resources and services.